Airport details for: LRBS (Romania)

Metar

LRBS 270830Z 21003KT 130V280 9999 FEW018 24/19 Q1005 NOSIG

General details

ICAO: LRBS
IATA: BBU
Name (city): Baneasa Aurel Vlaicu
Major:
Country: Romania
vACC: vACC Romania
Description:

Baneasa Airport - Traian Vuia

Scenery links:
FS9 scenery: Download
FSX/P3D scenery:
XP scenery: Download
Elevation: 299 ft.
Transition altitude: 4000 ft.
MSA: 10100 ft.
Latitude: 44.503611
Longitude: 26.103611
LRBS Charts
LRBS Notams
LRBS Online stations

Runways

Number Course Length Elevation Lat Lon ILS ILS freq ILS FAC GP
07 69° 10171ft / 3100 m 299ft 44.499797 26.085742 109.5 69° 3.0°
25 249° 10171ft / 3100 m 282ft 44.50717 26.121447 110.5 249° 3.0°